Terminal Aerodrome Forecast
Issued by NWS Blacksburg, VA

Current Version | Previous Version | Text Only | Print | Product List | Glossary Off
Versions: 1 2 3 4 5 6 7 8 9 10 11 12 13 14 15 16 17

000
FTUS41 KRNK 142323
TAFBLF
TAF
KBLF 142323Z 1500/1524 18011KT P6SM SCT035 OVC045
     FM150500 19007KT 4SM -SHRA BR SCT003 OVC015
     FM151400 29011G21KT 2SM SHRA BR OVC004
     FM151800 31016G28KT 4SM -SHSN OVC007
     FM152200 30013G25KT P6SM OVC015=

USA.gov is the U.S. government's official web portal to all federal, state and local government web resources and services.